Time;durP1;ratioP1;P1;durP2;ratioP2;P2;SDS_P1;SDS_P2;PMS_P1;PMS_P2;Temp;Humidity;BMP_temperature;BMP_pressure;BME280_temperature;BME280_humidity;BME280_pressure;Samples;Min_cycle;Max_cycle;Signal;HPM_P1;HPM_P2
2023/03/21 00:00:38;;;;;;;27.20;9.73;;;8.60;99.90;;;;;;5012672;28;20060;-72
2023/03/21 00:03:04;;;;;;;25.95;8.70;;;8.70;99.90;;;;;;5011751;28;20402;-71
2023/03/21 00:05:30;;;;;;;;;;;8.60;99.90;;;;;;5012602;28;20045;-72
2023/03/21 00:07:55;;;;;;;42.55;11.65;;;8.60;99.90;;;;;;5013133;28;19956;-71
2023/03/21 00:10:21;;;;;;;43.70;10.95;;;8.60;99.90;;;;;;5029810;28;20037;-71
2023/03/21 00:12:49;;;;;;;48.20;11.98;;;8.70;99.90;;;;;;5031803;28;20041;-72
2023/03/21 00:15:17;;;;;;;42.60;12.45;;;8.60;99.90;;;;;;5032475;28;20049;-72
2023/03/21 00:17:43;;;;;;;53.60;12.98;;;8.90;99.90;;;;;;5030748;28;20058;-72
2023/03/21 00:20:14;;;;;;;53.30;12.60;;;8.60;99.90;;;;;;5032349;28;20037;-71
2023/03/21 00:22:40;;;;;;;49.55;13.18;;;8.50;99.90;;;;;;5030869;28;20053;-72
2023/03/21 00:25:07;;;;;;;41.30;12.38;;;8.50;99.90;;;;;;5027013;28;20045;-72
2023/03/21 00:27:33;;;;;;;40.42;11.35;;;8.50;99.90;;;;;;5011049;28;20052;-72
2023/03/21 00:29:59;;;;;;;37.78;11.95;;;8.60;99.90;;;;;;5015516;28;20053;-72
2023/03/21 00:32:25;;;;;;;36.28;11.45;;;8.50;99.90;;;;;;5015835;28;20477;-72
2023/03/21 00:34:51;;;;;;;;;;;8.70;99.90;;;;;;5025166;28;20049;-72
2023/03/21 00:37:17;;;;;;;32.47;11.30;;;8.60;99.90;;;;;;5035009;28;19928;-72
2023/03/21 00:39:47;;;;;;;32.25;11.13;;;8.50;99.90;;;;;;5035839;28;20416;-71
2023/03/21 00:42:22;;;;;;;38.70;12.95;;;8.50;99.90;;;;;;5034967;28;20042;-72
2023/03/21 00:44:51;;;;;;;35.88;12.43;;;8.50;99.90;;;;;;5035010;28;20041;-72
2023/03/21 00:47:17;;;;;;;40.92;13.38;;;8.60;99.90;;;;;;5034434;28;20485;-72
2023/03/21 00:49:42;;;;;;;;;;;8.50;99.90;;;;;;5034775;28;20107;-72
2023/03/21 00:52:09;;;;;;;42.42;13.40;;;8.50;99.90;;;;;;5035496;28;19974;-71
2023/03/21 00:54:37;;;;;;;48.45;13.50;;;8.50;99.90;;;;;;5035269;28;20385;-71
2023/03/21 00:57:04;;;;;;;45.05;14.25;;;8.60;99.90;;;;;;5034075;28;20108;-72
2023/03/21 00:59:30;;;;;;;49.28;13.63;;;8.60;99.90;;;;;;5034361;28;20111;-72
2023/03/21 01:02:06;;;;;;;43.03;13.20;;;8.50;99.90;;;;;;5034275;28;20501;-72
2023/03/21 01:04:33;;;;;;;38.97;13.15;;;8.60;99.90;;;;;;5036007;28;20454;-71
2023/03/21 01:06:59;;;;;;;41.88;14.38;;;8.70;99.90;;;;;;5033597;28;20059;-72
2023/03/21 01:09:25;;;;;;;36.28;12.80;;;8.60;99.90;;;;;;5035745;28;20046;-72
2023/03/21 01:11:51;;;;;;;43.50;13.25;;;8.60;99.90;;;;;;5036132;28;20056;-71
2023/03/21 01:14:19;;;;;;;40.33;13.02;;;8.70;99.90;;;;;;5036961;28;20050;-72
2023/03/21 01:16:45;;;;;;;34.83;13.57;;;8.60;99.90;;;;;;5038382;28;20041;-72
2023/03/21 01:19:16;;;;;;;35.42;14.23;;;8.60;99.90;;;;;;5038865;28;20048;-71
2023/03/21 01:21:42;;;;;;;47.45;15.45;;;8.60;99.90;;;;;;5038554;28;20057;-71
2023/03/21 01:24:08;;;;;;;;;;;8.70;99.90;;;;;;5034159;28;20148;-71
2023/03/21 01:26:36;;;;;;;43.13;14.20;;;8.70;99.90;;;;;;5032864;28;20020;-71
2023/03/21 01:29:02;;;;;;;36.70;13.80;;;8.70;99.90;;;;;;5034345;28;20033;-72
2023/03/21 01:31:28;;;;;;;42.88;15.25;;;8.60;99.90;;;;;;5029153;28;20394;-71
2023/03/21 01:33:54;;;;;;;;;;;8.60;99.90;;;;;;5015906;28;20034;-72
2023/03/21 01:36:24;;;;;;;34.60;13.57;;;8.60;99.90;;;;;;5013542;28;19968;-72
2023/03/21 01:38:50;;;;;;;37.35;14.65;;;8.70;99.90;;;;;;5014409;28;20038;-71
2023/03/21 01:41:27;;;;;;;40.70;15.73;;;8.80;99.90;;;;;;5014439;28;20103;-71
2023/03/21 01:43:53;;;;;;;46.17;15.93;;;8.80;99.90;;;;;;5032630;28;20500;-71
2023/03/21 01:46:21;;;;;;;;;;;8.80;99.90;;;;;;5033323;28;20037;-72
2023/03/21 01:49:07;;;;;;;35.28;16.13;;;8.80;99.90;;;;;;5031613;28;19921;-71
2023/03/21 01:51:36;;;;;;;46.42;17.77;;;8.80;99.90;;;;;;5032511;28;20060;-72
2023/03/21 01:54:05;;;;;;;41.35;17.50;;;8.80;99.90;;;;;;5030216;28;20126;-71
2023/03/21 01:56:35;;;;;;;43.80;17.38;;;8.70;99.90;;;;;;5013101;28;20060;-72
2023/03/21 01:59:16;;;;;;;52.83;19.83;;;8.80;99.90;;;;;;5015425;28;20053;-71
2023/03/21 02:01:45;;;;;;;51.20;20.95;;;8.70;99.90;;;;;;5015075;28;20048;-71
2023/03/21 02:04:11;;;;;;;47.55;20.35;;;8.60;99.90;;;;;;5032989;28;20049;-72
2023/03/21 02:06:49;;;;;;;;;;;8.90;99.90;;;;;;5033733;28;20045;-72
2023/03/21 02:09:21;;;;;;;54.30;18.95;;;8.60;99.90;;;;;;5032915;28;19975;-71
2023/03/21 02:11:47;;;;;;;47.65;18.85;;;8.70;99.90;;;;;;5033901;28;20084;-71
2023/03/21 02:14:13;;;;;;;;;;;8.90;99.90;;;;;;5034900;28;20082;-71
2023/03/21 02:17:09;;;;;;;42.17;16.98;;;8.60;99.90;;;;;;5032597;28;19921;-71
2023/03/21 02:19:53;;;;;;;39.15;17.10;;;8.70;99.90;;;;;;5032289;28;20046;-72
2023/03/21 02:23:03;;;;;;;50.83;19.00;;;8.60;99.90;;;;;;5030354;28;20045;-71
2023/03/21 02:26:13;;;;;;;55.00;18.25;;;8.70;99.90;;;;;;5031714;28;20509;-71
2023/03/21 02:28:56;;;;;;;62.28;18.63;;;8.70;99.90;;;;;;4973760;28;20117;-71
2023/03/21 02:31:32;;;;;;;55.50;18.70;;;8.60;99.90;;;;;;4988534;28;20042;-71
2023/03/21 02:34:28;;;;;;;48.40;17.52;;;8.80;99.90;;;;;;4997892;28;20057;-71
2023/03/21 02:37:02;;;;;;;55.88;17.50;;;8.60;99.90;;;;;;5014183;28;20139;-70
2023/03/21 02:39:41;;;;;;;49.45;17.63;;;8.60;99.90;;;;;;5012397;28;20052;-71
2023/03/21 02:42:29;;;;;;;55.58;17.42;;;8.60;99.90;;;;;;5014307;28;20053;-71
2023/03/21 02:45:10;;;;;;;53.15;18.08;;;8.60;99.90;;;;;;5012657;28;20050;-71
2023/03/21 02:47:39;;;;;;;43.05;16.60;;;8.60;99.90;;;;;;5012056;28;20106;-70
2023/03/21 02:50:14;;;;;;;53.00;17.70;;;8.60;99.90;;;;;;5029065;28;20114;-70
2023/03/21 02:52:43;;;;;;;42.33;15.60;;;8.50;99.90;;;;;;5031579;28;20511;-71
2023/03/21 02:55:18;;;;;;;40.05;16.77;;;8.50;99.90;;;;;;5031768;28;20868;-71
2023/03/21 02:57:47;;;;;;;40.07;16.23;;;8.50;99.90;;;;;;5031336;28;20084;-70
2023/03/21 03:00:19;;;;;;;40.90;15.48;;;8.50;99.90;;;;;;5031678;28;20617;-72
2023/03/21 03:02:45;;;;;;;35.50;16.17;;;8.60;99.90;;;;;;5026318;28;20052;-72
2023/03/21 03:05:20;;;;;;;33.50;15.73;;;8.50;99.90;;;;;;5022330;28;20481;-71
2023/03/21 03:07:53;;;;;;;24.77;12.18;;;8.50;99.90;;;;;;5021934;28;20042;-71
2023/03/21 03:11:05;;;;;;;31.73;14.63;;;8.60;99.90;;;;;;5029036;28;20485;-71
2023/03/21 03:14:05;;;;;;;24.98;12.75;;;8.60;99.90;;;;;;5032593;28;20060;-71
2023/03/21 03:16:57;;;;;;;27.83;13.63;;;8.60;99.90;;;;;;5032112;28;20503;-71
2023/03/21 03:19:29;;;;;;;27.08;13.32;;;8.50;99.90;;;;;;5015329;28;20053;-72
2023/03/21 03:22:20;;;;;;;33.28;14.57;;;8.40;99.90;;;;;;5026128;28;20084;-71
2023/03/21 03:24:53;;;;;;;32.60;13.40;;;8.60;99.90;;;;;;5023409;28;20049;-72
2023/03/21 03:27:31;;;;;;;40.60;15.40;;;8.60;99.90;;;;;;5029004;28;20091;-70
2023/03/21 03:30:00;;;;;;;35.30;15.18;;;8.60;99.90;;;;;;5032416;28;20087;-70
2023/03/21 03:32:46;;;;;;;37.40;14.55;;;8.60;99.90;;;;;;5027073;28;20033;-72
2023/03/21 03:35:18;;;;;;;33.78;13.90;;;8.60;99.90;;;;;;5021933;28;20046;-72
2023/03/21 03:37:49;;;;;;;33.20;14.18;;;8.70;99.90;;;;;;5021461;28;20045;-72
2023/03/21 03:40:36;;;;;;;39.55;13.48;;;7.90;99.90;;;;;;5029258;28;20045;-72
2023/03/21 03:43:04;;;;;;;;;;;8.70;99.90;;;;;;5011819;28;20133;-71
2023/03/21 03:45:35;;;;;;;55.28;16.60;;;8.60;99.90;;;;;;5012017;28;19925;-72
2023/03/21 03:48:12;;;;;;;53.30;15.07;;;8.60;99.90;;;;;;5013214;28;20048;-72
2023/03/21 03:50:50;;;;;;;45.45;14.40;;;8.60;99.90;;;;;;5012503;28;20103;-72
2023/03/21 03:53:26;;;;;;;52.22;16.40;;;8.70;99.90;;;;;;5011769;28;20053;-71
2023/03/21 03:55:54;;;;;;;52.92;14.73;;;8.60;99.90;;;;;;5030767;28;20064;-71
2023/03/21 03:58:24;;;;;;;52.30;16.67;;;8.60;99.90;;;;;;5032010;28;20049;-72
2023/03/21 04:00:51;;;;;;;55.95;15.50;;;8.60;99.90;;;;;;5030967;28;20492;-72
2023/03/21 04:03:17;;;;;;;65.72;16.27;;;8.70;99.90;;;;;;5029972;28;20076;-72
2023/03/21 04:05:45;;;;;;;;;;;8.60;99.90;;;;;;5033143;28;20076;-72
2023/03/21 04:08:12;;;;;;;43.00;15.43;;;8.60;99.90;;;;;;5032165;28;19921;-72
2023/03/21 04:10:38;;;;;;;61.53;14.77;;;8.70;99.90;;;;;;5030417;28;20045;-72
2023/03/21 04:13:04;;;;;;;55.75;16.60;;;8.60;99.90;;;;;;5032577;28;20394;-72
2023/03/21 04:15:29;;;;;;;;;;;8.60;99.90;;;;;;5032376;28;20053;-72
2023/03/21 04:17:56;;;;;;;51.70;15.10;;;8.60;99.90;;;;;;5031954;28;19956;-72
2023/03/21 04:20:21;;;;;;;50.65;15.30;;;8.60;99.90;;;;;;5031069;28;20060;-72
2023/03/21 04:22:47;;;;;;;;;;;8.60;99.90;;;;;;5032734;28;20049;-72
2023/03/21 04:25:13;;;;;;;47.42;14.32;;;8.70;99.90;;;;;;5031578;28;20394;-71
2023/03/21 04:27:39;;;;;;;38.00;14.07;;;8.70;99.90;;;;;;5031869;28;20041;-71
2023/03/21 04:30:06;;;;;;;49.42;15.70;;;8.70;99.90;;;;;;5031118;28;20227;-71
2023/03/21 04:32:32;;;;;;;51.25;15.57;;;8.60;99.90;;;;;;5031682;28;20045;-72
2023/03/21 04:35:00;;;;;;;38.30;14.95;;;8.70;99.90;;;;;;5031288;28;20099;-70
2023/03/21 04:37:26;;;;;;;39.97;14.85;;;8.70;99.90;;;;;;5028002;28;20132;-71
2023/03/21 04:39:52;;;;;;;;;;;8.60;99.90;;;;;;5031251;28;20073;-71
2023/03/21 04:42:18;;;;;;;31.52;13.00;;;8.70;99.90;;;;;;5032287;28;19928;-72
2023/03/21 04:44:44;;;;;;;;;;;8.70;99.90;;;;;;5031567;28;20127;-71
2023/03/21 04:47:12;;;;;;;27.85;11.75;;;8.80;99.90;;;;;;5030183;28;19925;-71
2023/03/21 04:49:38;;;;;;;24.85;11.10;;;8.80;99.90;;;;;;5031804;28;20380;-71
2023/03/21 04:52:04;;;;;;;24.20;11.20;;;8.80;99.90;;;;;;5031957;28;20037;-73
2023/03/21 04:54:31;;;;;;;24.67;10.98;;;8.90;99.90;;;;;;5031712;28;20077;-72
2023/03/21 04:56:59;;;;;;;24.85;11.82;;;8.90;99.90;;;;;;5031972;28;20053;-70
2023/03/21 04:59:25;;;;;;;23.52;11.00;;;8.90;99.90;;;;;;5031435;28;20120;-70
2023/03/21 05:01:50;;;;;;;;;;;9.00;99.90;;;;;;5032679;28;20482;-69
2023/03/21 05:04:17;;;;;;;24.95;12.50;;;8.90;99.90;;;;;;5031880;28;19921;-69
2023/03/21 05:06:44;;;;;;;21.58;11.38;;;8.80;99.90;;;;;;5031620;28;20056;-70
2023/03/21 05:09:14;;;;;;;19.60;10.77;;;9.10;99.90;;;;;;5034998;28;20053;-69
2023/03/21 05:11:40;;;;;;;20.45;11.18;;;8.80;99.90;;;;;;5036955;28;20048;-69
2023/03/21 05:14:08;;;;;;;20.27;9.93;;;8.80;99.90;;;;;;5035344;28;20384;-69
2023/03/21 05:16:38;;;;;;;20.33;9.93;;;8.80;99.90;;;;;;5035181;28;20053;-70
2023/03/21 05:19:04;;;;;;;19.40;10.25;;;9.00;99.90;;;;;;5030380;28;20409;-69
2023/03/21 05:21:40;;;;;;;18.83;10.00;;;8.80;99.90;;;;;;5013683;28;20107;-70
2023/03/21 05:24:11;;;;;;;21.17;11.20;;;8.80;99.90;;;;;;5013923;28;20053;-69
2023/03/21 05:26:37;;;;;;;20.90;10.65;;;8.80;99.90;;;;;;5015440;28;20299;-69
2023/03/21 05:29:04;;;;;;;19.20;10.35;;;8.80;99.90;;;;;;5030747;28;20045;-69
2023/03/21 05:31:29;;;;;;;20.25;11.35;;;8.80;99.90;;;;;;5033592;28;20076;-71
2023/03/21 05:33:55;;;;;;;;;;;8.80;99.90;;;;;;5034673;28;20485;-70
2023/03/21 05:36:21;;;;;;;20.60;12.07;;;8.80;99.90;;;;;;5034386;28;19975;-70
2023/03/21 05:38:46;;;;;;;;;;;9.40;99.90;;;;;;5035127;28;20049;-70
2023/03/21 05:41:13;;;;;;;21.23;12.52;;;8.80;99.90;;;;;;5034397;28;20392;-70
2023/03/21 05:43:39;;;;;;;21.85;10.80;;;8.70;99.90;;;;;;5035020;28;20178;-70
2023/03/21 05:46:04;;;;;;;;;;;8.70;99.90;;;;;;5033795;28;20045;-70
2023/03/21 05:48:30;;;;;;;18.00;9.95;;;8.70;99.90;;;;;;5034049;28;19975;-70
2023/03/21 05:50:55;;;;;;;18.83;10.90;;;8.80;99.90;;;;;;5033993;28;20080;-72
2023/03/21 05:53:21;;;;;;;;;;;8.80;99.90;;;;;;5032007;28;20507;-73
2023/03/21 05:55:47;;;;;;;14.35;8.73;;;8.70;99.90;;;;;;5034495;28;19928;-73
2023/03/21 05:58:12;;;;;;;19.50;10.65;;;9.10;99.90;;;;;;5035179;28;20087;-72
2023/03/21 06:00:38;;;;;;;;;;;8.70;99.90;;;;;;5033499;28;20092;-73
2023/03/21 06:03:03;;;;;;;18.35;9.65;;;8.90;99.90;;;;;;5035131;28;19921;-74
2023/03/21 06:05:29;;;;;;;13.27;8.18;;;8.80;99.90;;;;;;5033443;28;20405;-74
2023/03/21 06:07:55;;;;;;;;;;;8.80;99.90;;;;;;5030251;28;20050;-74
2023/03/21 06:10:20;;;;;;;15.32;9.27;;;8.80;99.90;;;;;;5031213;28;19921;-74
2023/03/21 06:12:46;;;;;;;14.35;8.98;;;8.80;99.90;;;;;;5040188;28;20045;-74
2023/03/21 06:15:12;;;;;;;;;;;8.90;99.90;;;;;;5039463;28;20042;-73
2023/03/21 06:17:38;;;;;;;17.25;9.32;;;8.80;99.90;;;;;;5036727;28;19932;-73
2023/03/21 06:20:05;;;;;;;14.90;9.45;;;8.80;99.90;;;;;;5038715;28;20120;-71
2023/03/21 06:22:32;;;;;;;14.77;8.00;;;8.80;99.90;;;;;;5037269;28;20111;-75
2023/03/21 06:24:58;;;;;;;15.75;9.05;;;9.40;99.90;;;;;;5034128;28;20088;-73
2023/03/21 06:27:23;;;;;;;;;;;8.80;99.90;;;;;;5034259;28;20069;-84
2023/03/21 06:29:49;;;;;;;15.55;9.32;;;8.80;99.90;;;;;;5033088;28;19921;-79
2023/03/21 06:32:15;;;;;;;;;;;8.90;99.90;;;;;;5032898;28;20037;-83
2023/03/21 06:34:41;;;;;;;14.13;8.57;;;8.80;99.90;;;;;;5032680;28;19921;-81
2023/03/21 06:37:07;;;;;;;16.95;10.20;;;8.80;99.90;;;;;;5032115;28;20131;-77
2023/03/21 06:39:35;;;;;;;17.10;10.48;;;9.50;99.90;;;;;;5032185;28;20052;-87
2023/03/21 06:42:02;;;;;;;17.73;10.95;;;8.80;99.90;;;;;;5011913;28;20081;-82
2023/03/21 06:44:28;;;;;;;16.23;10.65;;;8.90;99.90;;;;;;5032098;28;20049;-91
2023/03/21 06:46:53;;;;;;;;;;;8.90;99.90;;;;;;5034274;28;20053;-81
2023/03/21 06:49:19;;;;;;;17.88;11.00;;;8.90;99.90;;;;;;5029724;28;19925;-82
2023/03/21 06:51:45;;;;;;;20.65;11.48;;;8.90;99.90;;;;;;5032886;28;20103;-78
2023/03/21 06:54:13;;;;;;;;;;;8.90;99.90;;;;;;5032641;28;20057;-78
2023/03/21 06:56:39;;;;;;;16.67;10.18;;;8.90;99.90;;;;;;5031647;28;20316;-78
2023/03/21 06:59:05;;;;;;;19.73;11.35;;;9.00;99.90;;;;;;5028144;28;20048;-77
2023/03/21 07:01:30;;;;;;;;;;;9.10;99.90;;;;;;5029283;28;20128;-78
2023/03/21 07:03:57;;;;;;;15.40;9.40;;;9.00;99.90;;;;;;5030184;28;19983;-78
2023/03/21 07:06:27;;;;;;;12.80;8.07;;;9.10;99.90;;;;;;5027555;28;20496;-78
2023/03/21 07:08:54;;;;;;;13.30;8.40;;;9.10;99.90;;;;;;5028563;28;20241;-78
2023/03/21 07:11:20;;;;;;;14.85;9.40;;;9.40;99.90;;;;;;5028012;28;20397;-78
2023/03/21 07:13:47;;;;;;;16.52;9.73;;;9.00;99.90;;;;;;5027992;28;20045;-78
2023/03/21 07:16:14;;;;;;;16.80;10.80;;;9.00;99.90;;;;;;5028814;28;20129;-78
2023/03/21 07:18:43;;;;;;;23.90;14.70;;;9.10;99.90;;;;;;5029372;28;20052;-77
2023/03/21 07:21:09;;;;;;;16.13;9.40;;;9.10;99.90;;;;;;5031966;28;20072;-77
2023/03/21 07:23:34;;;;;;;;;;;9.00;99.90;;;;;;5032939;28;20057;-77
2023/03/21 07:26:00;;;;;;;13.68;8.98;;;9.10;99.90;;;;;;5033066;28;19921;-78
2023/03/21 07:28:26;;;;;;;;;;;9.00;99.90;;;;;;5031436;28;20174;-78
2023/03/21 07:30:57;;;;;;;14.63;8.07;;;9.10;99.90;;;;;;5031636;28;20015;-78
2023/03/21 07:33:24;;;;;;;13.98;8.48;;;9.20;99.90;;;;;;5027891;28;20048;-78
2023/03/21 07:35:54;;;;;;;13.35;8.60;;;9.10;99.90;;;;;;5011737;28;20042;-78
2023/03/21 07:38:20;;;;;;;13.52;8.40;;;9.10;99.90;;;;;;5013993;28;20081;-78
2023/03/21 07:40:47;;;;;;;15.70;8.90;;;9.10;99.90;;;;;;5032572;28;20041;-78
2023/03/21 07:43:13;;;;;;;13.50;8.48;;;9.40;99.90;;;;;;5031482;28;20045;-78
2023/03/21 07:45:39;;;;;;;13.63;8.38;;;9.20;99.90;;;;;;5030973;28;20034;-78
2023/03/21 07:48:05;;;;;;;;;;;9.20;99.90;;;;;;5027755;28;20148;-78
2023/03/21 07:50:31;;;;;;;14.80;7.93;;;9.20;99.90;;;;;;5013124;28;19921;-78
2023/03/21 07:52:57;;;;;;;12.93;8.20;;;9.50;99.90;;;;;;5011963;28;20437;-78
2023/03/21 07:55:22;;;;;;;;;;;9.30;99.90;;;;;;5013880;28;20108;-78
2023/03/21 07:57:51;;;;;;;14.95;8.57;;;9.30;99.90;;;;;;5032876;28;19921;-78
2023/03/21 08:00:22;;;;;;;12.80;7.50;;;9.20;99.90;;;;;;5032200;28;20449;-78
2023/03/21 08:02:53;;;;;;;13.13;8.35;;;9.30;99.90;;;;;;5030990;28;20080;-78
2023/03/21 08:05:24;;;;;;;13.88;8.10;;;9.30;99.90;;;;;;5032672;28;20033;-78
2023/03/21 08:07:50;;;;;;;14.80;8.30;;;9.40;99.90;;;;;;5031248;28;20056;-78
2023/03/21 08:10:15;;;;;;;;;;;9.50;99.90;;;;;;5031473;28;20042;-78
2023/03/21 08:12:41;;;;;;;13.70;9.68;;;9.50;99.90;;;;;;5032600;28;19967;-78
2023/03/21 08:15:11;;;;;;;14.85;8.27;;;9.80;99.90;;;;;;5032983;28;20038;-78
2023/03/21 08:17:38;;;;;;;16.02;8.52;;;9.40;99.90;;;;;;5029806;28;20099;-78
2023/03/21 08:20:10;;;;;;;12.93;7.22;;;9.40;99.90;;;;;;5027692;28;20038;-78
2023/03/21 08:22:36;;;;;;;12.45;6.68;;;9.40;99.90;;;;;;5012326;28;20053;-78
2023/03/21 08:25:04;;;;;;;;;;;9.70;99.90;;;;;;5030216;28;20116;-78
2023/03/21 08:27:32;;;;;;;12.68;7.38;;;9.40;99.90;;;;;;5030552;28;19921;-81
2023/03/21 08:30:05;;;;;;;14.07;6.47;;;9.40;99.90;;;;;;5031248;28;20056;-80
2023/03/21 08:32:31;;;;;;;12.48;8.40;;;9.60;99.90;;;;;;5032353;28;20052;-80
2023/03/21 08:34:59;;;;;;;14.70;8.50;;;9.70;99.90;;;;;;5032395;28;20041;-77
2023/03/21 08:37:25;;;;;;;11.50;6.68;;;9.80;99.90;;;;;;5026625;28;20048;-77
2023/03/21 08:39:51;;;;;;;14.75;9.38;;;9.60;99.90;;;;;;5011362;28;20041;-78
2023/03/21 08:42:18;;;;;;;19.10;11.52;;;9.60;99.90;;;;;;5012888;28;20068;-76
2023/03/21 08:44:44;;;;;;;16.15;10.98;;;10.40;99.90;;;;;;5012667;28;20042;-84
2023/03/21 08:47:11;;;;;;;15.90;10.20;;;9.60;99.90;;;;;;5012525;28;20046;-84
2023/03/21 08:49:37;;;;;;;19.27;10.80;;;9.60;99.90;;;;;;5033406;28;20067;-82
2023/03/21 08:52:03;;;;;;;;;;;9.60;99.90;;;;;;5034835;28;20132;-81
2023/03/21 08:54:29;;;;;;;16.15;10.88;;;9.50;99.90;;;;;;5035091;28;19925;-81
2023/03/21 08:56:54;;;;;;;;;;;9.60;99.90;;;;;;5036889;28;20053;-81
2023/03/21 08:59:20;;;;;;;19.80;11.98;;;9.60;99.90;;;;;;5034094;28;19928;-81
2023/03/21 09:01:46;;;;;;;24.13;15.27;;;9.60;99.90;;;;;;5037912;28;20038;-82
2023/03/21 09:04:12;;;;;;;18.98;13.18;;;9.80;99.90;;;;;;5042130;28;20091;-82
2023/03/21 09:06:39;;;;;;;27.85;15.10;;;9.60;99.90;;;;;;5052787;28;20049;-86
2023/03/21 09:09:07;;;;;;;21.85;13.13;;;9.80;99.90;;;;;;5050161;28;20061;-82
2023/03/21 09:11:33;;;;;;;22.80;13.98;;;9.50;99.90;;;;;;5037823;28;20186;-82
2023/03/21 09:13:59;;;;;;;21.20;13.60;;;9.50;99.90;;;;;;5035458;28;20045;-83
2023/03/21 09:16:25;;;;;;;;;;;9.40;99.90;;;;;;5035890;28;20053;-83
2023/03/21 09:18:55;;;;;;;20.73;10.52;;;9.50;99.90;;;;;;5035710;28;19921;-81
2023/03/21 09:21:22;;;;;;;18.50;10.32;;;9.50;99.90;;;;;;5034022;28;20100;-82
2023/03/21 09:23:55;;;;;;;25.65;12.93;;;9.50;99.90;;;;;;5034983;28;20046;-82
2023/03/21 09:26:22;;;;;;;22.98;14.25;;;9.50;99.90;;;;;;5033655;28;20164;-82
2023/03/21 09:28:48;;;;;;;23.48;13.27;;;9.40;99.90;;;;;;5033983;28;20071;-81
2023/03/21 09:31:21;;;;;;;22.80;12.75;;;9.40;99.90;;;;;;5035507;28;20037;-81
2023/03/21 09:33:50;;;;;;;22.60;13.05;;;9.40;99.90;;;;;;5034065;28;20072;-79
2023/03/21 09:36:19;;;;;;;22.33;12.85;;;9.40;99.90;;;;;;5035656;28;20128;-79
2023/03/21 09:38:47;;;;;;;22.65;12.27;;;9.30;99.90;;;;;;5033755;28;20053;-77
2023/03/21 09:41:37;;;;;;;20.85;10.63;;;9.30;99.90;;;;;;5034713;28;20568;-76
2023/03/21 09:44:28;;;;;;;19.23;9.38;;;9.30;99.90;;;;;;5033933;28;20067;-74
2023/03/21 09:47:19;;;;;;;16.70;9.50;;;9.40;99.90;;;;;;5033686;28;20061;-74
2023/03/21 09:49:50;;;;;;;22.05;12.48;;;9.40;99.90;;;;;;5033706;28;20485;-73
2023/03/21 09:52:37;;;;;;;17.45;10.10;;;9.50;99.90;;;;;;5034879;28;20491;-75
2023/03/21 09:55:17;;;;;;;18.25;10.27;;;9.70;99.90;;;;;;5034714;28;20388;-75
2023/03/21 09:57:45;;;;;;;18.20;10.73;;;9.70;99.90;;;;;;5033268;28;20507;-74
2023/03/21 10:00:20;;;;;;;17.63;9.57;;;9.80;99.90;;;;;;5033197;28;20044;-74
2023/03/21 10:02:49;;;;;;;13.73;7.65;;;9.90;99.90;;;;;;5033271;28;20046;-77
2023/03/21 10:05:19;;;;;;;20.27;9.73;;;10.10;99.90;;;;;;5034991;28;20400;-75
2023/03/21 10:08:03;;;;;;;16.60;8.02;;;10.10;99.90;;;;;;5033033;28;20060;-74
2023/03/21 10:10:36;;;;;;;14.55;8.90;;;10.20;99.90;;;;;;5032989;28;20045;-74
2023/03/21 10:13:09;;;;;;;16.45;7.72;;;10.20;99.90;;;;;;5034651;28;20554;-74
2023/03/21 10:15:35;;;;;;;17.33;8.77;;;10.30;99.90;;;;;;5032605;28;20447;-73
2023/03/21 10:18:03;;;;;;;;;;;10.30;99.90;;;;;;5033295;28;20053;-74
2023/03/21 10:20:37;;;;;;;16.42;8.35;;;10.30;99.90;;;;;;5034146;28;20007;-75
2023/03/21 10:23:11;;;;;;;18.05;9.27;;;10.50;99.90;;;;;;5032609;28;20053;-75
2023/03/21 10:25:50;;;;;;;14.38;8.73;;;10.70;99.90;;;;;;5034320;28;20057;-74
2023/03/21 10:28:20;;;;;;;16.60;7.95;;;10.80;99.90;;;;;;5032772;28;20048;-74
2023/03/21 10:30:51;;;;;;;15.80;7.80;;;10.90;99.90;;;;;;5034215;28;20054;-74
2023/03/21 10:33:23;;;;;;;16.08;7.32;;;10.90;99.90;;;;;;5029515;28;20500;-75
2023/03/21 10:35:56;;;;;;;13.77;5.85;;;11.00;99.90;;;;;;5028526;28;20064;-74
2023/03/21 10:38:24;;;;;;;13.77;5.88;;;11.10;99.90;;;;;;5031999;28;20042;-74
2023/03/21 10:40:50;;;;;;;12.60;7.00;;;11.10;99.90;;;;;;5033723;28;20044;-74
2023/03/21 10:43:29;;;;;;;;;;;11.10;99.90;;;;;;5034284;28;20116;-76
2023/03/21 10:45:57;;;;;;;9.73;5.22;;;11.10;99.90;;;;;;5029974;28;19921;-74
2023/03/21 10:48:23;;;;;;;;;;;11.00;99.90;;;;;;5012890;28;20052;-75
2023/03/21 10:50:55;;;;;;;8.23;4.28;;;11.10;99.90;;;;;;5013745;28;19968;-74
2023/03/21 10:53:34;;;;;;;8.23;4.40;;;11.20;99.90;;;;;;5013943;28;20081;-74
2023/03/21 10:56:01;;;;;;;8.98;4.82;;;11.10;99.90;;;;;;5015315;28;20071;-74
2023/03/21 10:58:37;;;;;;;9.55;4.28;;;11.10;99.90;;;;;;5033330;28;20099;-76
2023/03/21 11:01:08;;;;;;;10.52;5.38;;;11.20;99.90;;;;;;5032842;28;20396;-76
2023/03/21 11:03:42;;;;;;;9.63;4.63;;;11.20;99.90;;;;;;5033336;28;20050;-75
2023/03/21 11:06:16;;;;;;;8.43;4.43;;;11.30;99.90;;;;;;5033048;28;20033;-78
2023/03/21 11:08:50;;;;;;;9.93;5.22;;;11.40;99.90;;;;;;5033287;28;20432;-77
2023/03/21 11:11:27;;;;;;;11.80;4.68;;;11.60;99.90;;;;;;5033719;28;20489;-78
2023/03/21 11:14:08;;;;;;;10.00;5.47;;;11.80;99.90;;;;;;5031742;28;20049;-77
2023/03/21 11:16:40;;;;;;;10.15;5.20;;;11.90;99.90;;;;;;5029564;28;20048;-77
2023/03/21 11:19:31;;;;;;;10.10;5.43;;;11.90;99.90;;;;;;5031736;28;20049;-76
2023/03/21 11:21:58;;;;;;;7.60;4.13;;;11.90;99.90;;;;;;5032036;28;20138;-75
2023/03/21 11:24:29;;;;;;;11.82;4.85;;;12.00;99.90;;;;;;5031391;28;20057;-75
2023/03/21 11:26:56;;;;;;;10.05;5.20;;;11.90;99.90;;;;;;5031956;28;20095;-78
2023/03/21 11:29:32;;;;;;;8.45;5.03;;;11.80;99.90;;;;;;5032911;28;20042;-74
2023/03/21 11:32:01;;;;;;;11.77;5.55;;;11.60;99.90;;;;;;5032550;28;20393;-75
2023/03/21 11:34:34;;;;;;;9.82;5.38;;;11.60;99.90;;;;;;5030947;28;20485;-74
2023/03/21 11:37:01;;;;;;;11.27;5.25;;;11.60;99.90;;;;;;5032739;28;20405;-74
2023/03/21 11:39:31;;;;;;;11.10;5.70;;;11.40;99.90;;;;;;5032743;28;20489;-75
2023/03/21 11:41:59;;;;;;;12.30;5.93;;;11.40;99.90;;;;;;5032589;28;20045;-74
2023/03/21 11:44:34;;;;;;;14.68;7.07;;;11.30;99.90;;;;;;5032403;28;20045;-74
2023/03/21 11:47:01;;;;;;;12.00;6.93;;;11.30;99.90;;;;;;5032005;28;20042;-75
2023/03/21 11:49:27;;;;;;;10.93;5.90;;;11.20;99.90;;;;;;5031819;28;20128;-75
2023/03/21 11:51:58;;;;;;;13.43;6.88;;;11.20;99.90;;;;;;5031658;28;20045;-74
2023/03/21 11:54:47;;;;;;;14.02;7.10;;;11.10;99.90;;;;;;5030903;28;20037;-74
2023/03/21 11:57:19;;;;;;;13.55;6.88;;;11.00;99.90;;;;;;5031201;28;20236;-74
2023/03/21 11:59:50;;;;;;;15.05;6.78;;;11.00;99.90;;;;;;5032272;28;20046;-74
2023/03/21 12:02:54;;;;;;;13.25;8.18;;;11.10;99.90;;;;;;5031603;28;20570;-73
2023/03/21 12:05:32;;;;;;;11.65;6.53;;;11.10;99.90;;;;;;5030801;28;20489;-74
2023/03/21 12:08:27;;;;;;;13.95;7.97;;;11.40;99.90;;;;;;5032196;28;20042;-73
2023/03/21 12:11:15;;;;;;;14.25;7.82;;;11.30;99.90;;;;;;5031697;28;20060;-75
2023/03/21 12:14:17;;;;;;;14.77;7.18;;;11.40;99.90;;;;;;5030554;28;20374;-75
2023/03/21 12:17:07;;;;;;;13.93;6.93;;;11.50;99.90;;;;;;5020513;28;20495;-76
2023/03/21 12:20:12;;;;;;;11.60;6.22;;;11.50;99.90;;;;;;5027260;28;20054;-78
2023/03/21 12:22:53;;;;;;;15.13;6.93;;;11.60;99.90;;;;;;5011918;28;20141;-76
2023/03/21 12:25:34;;;;;;;13.48;6.93;;;11.70;99.90;;;;;;5015264;28;20053;-75
2023/03/21 12:28:17;;;;;;;16.45;8.20;;;11.70;99.90;;;;;;5016128;28;20041;-76
2023/03/21 12:30:55;;;;;;;15.55;8.00;;;11.80;99.90;;;;;;5015528;28;20042;-77
2023/03/21 12:33:38;;;;;;;15.05;7.30;;;11.80;99.90;;;;;;5016824;28;20045;-77
2023/03/21 12:36:17;;;;;;;18.13;7.95;;;11.90;99.90;;;;;;5015379;28;20108;-76
2023/03/21 12:38:46;;;;;;;14.85;8.00;;;11.90;99.90;;;;;;5033181;28;20107;-74
2023/03/21 12:41:44;;;;;;;13.45;7.97;;;11.70;99.90;;;;;;5036701;28;20440;-73
2023/03/21 12:44:16;;;;;;;14.15;8.68;;;11.70;99.90;;;;;;5042363;28;20041;-74
2023/03/21 12:46:51;;;;;;;14.65;8.38;;;11.50;99.90;;;;;;5042339;28;20041;-74
2023/03/21 12:49:40;;;;;;;16.58;9.07;;;11.50;99.90;;;;;;5045037;28;20033;-77
2023/03/21 12:52:20;;;;;;;16.10;8.88;;;11.40;99.90;;;;;;5043816;28;20049;-74
2023/03/21 12:55:01;;;;;;;17.25;8.95;;;11.40;99.90;;;;;;5044260;28;20081;-73
2023/03/21 12:57:36;;;;;;;12.65;8.88;;;11.40;99.90;;;;;;5035579;28;20053;-72
2023/03/21 13:00:27;;;;;;;16.48;9.18;;;11.40;99.90;;;;;;5036620;28;20128;-73
2023/03/21 13:03:05;;;;;;;18.73;10.93;;;11.50;99.90;;;;;;5037697;28;20121;-72
2023/03/21 13:05:34;;;;;;;14.38;10.52;;;11.70;99.90;;;;;;5039852;28;20092;-73
2023/03/21 13:08:30;;;;;;;17.70;10.68;;;12.20;99.90;;;;;;5038140;28;20116;-72
2023/03/21 13:10:57;;;;;;;18.33;11.00;;;12.30;99.90;;;;;;5015812;28;20089;-72